sensor_id;sensor_type;location;lat;lon;timestamp;P1;durP1;ratioP1;P2;durP2;ratioP2
79410;SDS011;69635;50.964;6.948;2023-04-26T00:01:27;3.65;;;1.33;;
79410;SDS011;69635;50.964;6.948;2023-04-26T00:03:54;3.65;;;1.40;;
79410;SDS011;69635;50.964;6.948;2023-04-26T00:06:20;5.22;;;1.65;;
79410;SDS011;69635;50.964;6.948;2023-04-26T00:08:45;8.25;;;1.67;;
79410;SDS011;69635;50.964;6.948;2023-04-26T00:11:11;3.10;;;1.30;;
79410;SDS011;69635;50.964;6.948;2023-04-26T00:13:36;6.15;;;1.60;;
79410;SDS011;69635;50.964;6.948;2023-04-26T00:16:05;6.05;;;1.42;;
79410;SDS011;69635;50.964;6.948;2023-04-26T00:18:30;4.88;;;1.58;;
79410;SDS011;69635;50.964;6.948;2023-04-26T00:20:56;3.13;;;1.38;;
79410;SDS011;69635;50.964;6.948;2023-04-26T00:23:21;5.15;;;1.40;;
79410;SDS011;69635;50.964;6.948;2023-04-26T00:25:47;2.92;;;1.15;;
79410;SDS011;69635;50.964;6.948;2023-04-26T00:28:12;4.20;;;1.73;;
79410;SDS011;69635;50.964;6.948;2023-04-26T00:30:38;3.28;;;1.58;;
79410;SDS011;69635;50.964;6.948;2023-04-26T00:33:06;1.75;;;1.05;;
79410;SDS011;69635;50.964;6.948;2023-04-26T00:35:31;5.47;;;1.50;;
79410;SDS011;69635;50.964;6.948;2023-04-26T00:37:57;5.00;;;1.50;;
79410;SDS011;69635;50.964;6.948;2023-04-26T00:40:22;3.38;;;1.52;;
79410;SDS011;69635;50.964;6.948;2023-04-26T00:42:48;3.25;;;1.40;;
79410;SDS011;69635;50.964;6.948;2023-04-26T00:45:13;5.78;;;1.52;;
79410;SDS011;69635;50.964;6.948;2023-04-26T00:47:38;4.47;;;1.48;;
79410;SDS011;69635;50.964;6.948;2023-04-26T00:50:05;4.18;;;1.60;;
79410;SDS011;69635;50.964;6.948;2023-04-26T00:52:31;3.83;;;1.70;;
79410;SDS011;69635;50.964;6.948;2023-04-26T00:54:57;3.33;;;1.50;;
79410;SDS011;69635;50.964;6.948;2023-04-26T00:57:23;3.35;;;1.55;;
79410;SDS011;69635;50.964;6.948;2023-04-26T00:59:49;6.25;;;1.75;;
79410;SDS011;69635;50.964;6.948;2023-04-26T01:02:14;4.18;;;1.60;;
79410;SDS011;69635;50.964;6.948;2023-04-26T01:04:40;8.10;;;1.98;;
79410;SDS011;69635;50.964;6.948;2023-04-26T01:07:06;3.55;;;1.40;;
79410;SDS011;69635;50.964;6.948;2023-04-26T01:09:32;5.05;;;1.75;;
79410;SDS011;69635;50.964;6.948;2023-04-26T01:11:58;4.82;;;2.00;;
79410;SDS011;69635;50.964;6.948;2023-04-26T01:14:26;3.90;;;1.52;;
79410;SDS011;69635;50.964;6.948;2023-04-26T01:16:52;4.53;;;1.58;;
79410;SDS011;69635;50.964;6.948;2023-04-26T01:19:18;4.03;;;1.45;;
79410;SDS011;69635;50.964;6.948;2023-04-26T01:21:43;6.00;;;1.67;;
79410;SDS011;69635;50.964;6.948;2023-04-26T01:24:09;5.20;;;1.73;;
79410;SDS011;69635;50.964;6.948;2023-04-26T01:26:36;5.38;;;1.75;;
79410;SDS011;69635;50.964;6.948;2023-04-26T01:29:14;5.97;;;1.67;;
79410;SDS011;69635;50.964;6.948;2023-04-26T01:31:41;4.30;;;1.75;;
79410;SDS011;69635;50.964;6.948;2023-04-26T01:34:07;3.28;;;1.73;;
79410;SDS011;69635;50.964;6.948;2023-04-26T01:36:32;2.72;;;1.70;;
79410;SDS011;69635;50.964;6.948;2023-04-26T01:38:57;5.97;;;1.55;;
79410;SDS011;69635;50.964;6.948;2023-04-26T01:41:23;5.38;;;1.88;;
79410;SDS011;69635;50.964;6.948;2023-04-26T01:43:48;4.22;;;1.40;;
79410;SDS011;69635;50.964;6.948;2023-04-26T01:46:14;4.93;;;1.58;;
79410;SDS011;69635;50.964;6.948;2023-04-26T01:48:39;4.13;;;1.85;;
79410;SDS011;69635;50.964;6.948;2023-04-26T01:51:05;3.85;;;1.60;;
79410;SDS011;69635;50.964;6.948;2023-04-26T01:53:31;6.32;;;1.67;;
79410;SDS011;69635;50.964;6.948;2023-04-26T01:55:59;7.50;;;1.95;;
79410;SDS011;69635;50.964;6.948;2023-04-26T01:58:25;7.18;;;1.80;;
79410;SDS011;69635;50.964;6.948;2023-04-26T02:00:51;5.38;;;2.08;;
79410;SDS011;69635;50.964;6.948;2023-04-26T02:03:16;11.45;;;2.45;;
79410;SDS011;69635;50.964;6.948;2023-04-26T02:05:42;5.28;;;2.08;;
79410;SDS011;69635;50.964;6.948;2023-04-26T02:08:07;8.13;;;1.92;;
79410;SDS011;69635;50.964;6.948;2023-04-26T02:10:32;8.70;;;2.05;;
79410;SDS011;69635;50.964;6.948;2023-04-26T02:12:58;4.45;;;1.80;;
79410;SDS011;69635;50.964;6.948;2023-04-26T02:15:23;3.63;;;2.00;;
79410;SDS011;69635;50.964;6.948;2023-04-26T02:17:49;7.47;;;2.20;;
79410;SDS011;69635;50.964;6.948;2023-04-26T02:20:14;7.43;;;1.95;;
79410;SDS011;69635;50.964;6.948;2023-04-26T02:22:40;6.97;;;1.95;;
79410;SDS011;69635;50.964;6.948;2023-04-26T02:25:05;4.28;;;1.88;;
79410;SDS011;69635;50.964;6.948;2023-04-26T02:27:32;6.20;;;2.08;;
79410;SDS011;69635;50.964;6.948;2023-04-26T02:29:58;6.00;;;2.40;;
79410;SDS011;69635;50.964;6.948;2023-04-26T02:32:23;6.88;;;1.85;;
79410;SDS011;69635;50.964;6.948;2023-04-26T02:34:49;5.03;;;1.98;;
79410;SDS011;69635;50.964;6.948;2023-04-26T02:37:14;4.20;;;2.38;;
79410;SDS011;69635;50.964;6.948;2023-04-26T02:39:39;8.02;;;2.92;;
79410;SDS011;69635;50.964;6.948;2023-04-26T02:42:08;4.63;;;2.03;;
79410;SDS011;69635;50.964;6.948;2023-04-26T02:44:34;5.00;;;2.33;;
79410;SDS011;69635;50.964;6.948;2023-04-26T02:47:00;3.22;;;2.03;;
79410;SDS011;69635;50.964;6.948;2023-04-26T02:49:26;5.53;;;2.10;;
79410;SDS011;69635;50.964;6.948;2023-04-26T02:51:51;5.60;;;2.63;;
79410;SDS011;69635;50.964;6.948;2023-04-26T02:54:17;7.32;;;2.88;;
79410;SDS011;69635;50.964;6.948;2023-04-26T02:56:42;8.55;;;2.22;;
79410;SDS011;69635;50.964;6.948;2023-04-26T02:59:08;7.97;;;2.25;;
79410;SDS011;69635;50.964;6.948;2023-04-26T03:01:33;6.18;;;2.45;;
79410;SDS011;69635;50.964;6.948;2023-04-26T03:03:58;6.90;;;2.42;;
79410;SDS011;69635;50.964;6.948;2023-04-26T03:06:24;7.63;;;2.20;;
79410;SDS011;69635;50.964;6.948;2023-04-26T03:08:49;4.75;;;2.45;;
79410;SDS011;69635;50.964;6.948;2023-04-26T03:11:14;8.27;;;2.90;;
79410;SDS011;69635;50.964;6.948;2023-04-26T03:13:40;7.05;;;2.42;;
79410;SDS011;69635;50.964;6.948;2023-04-26T03:16:05;3.33;;;2.50;;
79410;SDS011;69635;50.964;6.948;2023-04-26T03:18:31;5.18;;;2.05;;
79410;SDS011;69635;50.964;6.948;2023-04-26T03:20:56;6.63;;;2.42;;
79410;SDS011;69635;50.964;6.948;2023-04-26T03:23:22;6.53;;;2.78;;
79410;SDS011;69635;50.964;6.948;2023-04-26T03:25:49;7.28;;;2.72;;
79410;SDS011;69635;50.964;6.948;2023-04-26T03:28:15;8.57;;;3.50;;
79410;SDS011;69635;50.964;6.948;2023-04-26T03:30:41;6.00;;;2.78;;
79410;SDS011;69635;50.964;6.948;2023-04-26T03:33:06;5.03;;;2.35;;
79410;SDS011;69635;50.964;6.948;2023-04-26T03:35:31;9.50;;;2.72;;
79410;SDS011;69635;50.964;6.948;2023-04-26T03:37:57;9.02;;;2.90;;
79410;SDS011;69635;50.964;6.948;2023-04-26T03:40:22;9.10;;;2.90;;
79410;SDS011;69635;50.964;6.948;2023-04-26T03:42:47;7.32;;;3.05;;
79410;SDS011;69635;50.964;6.948;2023-04-26T03:45:13;7.70;;;3.15;;
79410;SDS011;69635;50.964;6.948;2023-04-26T03:47:38;8.95;;;3.13;;
79410;SDS011;69635;50.964;6.948;2023-04-26T03:50:04;9.77;;;2.95;;
79410;SDS011;69635;50.964;6.948;2023-04-26T03:52:32;9.20;;;3.33;;
79410;SDS011;69635;50.964;6.948;2023-04-26T03:54:57;8.52;;;2.97;;
79410;SDS011;69635;50.964;6.948;2023-04-26T03:57:23;7.50;;;3.20;;
79410;SDS011;69635;50.964;6.948;2023-04-26T03:59:48;7.03;;;3.08;;
79410;SDS011;69635;50.964;6.948;2023-04-26T04:02:13;6.30;;;2.80;;
79410;SDS011;69635;50.964;6.948;2023-04-26T04:04:39;14.35;;;3.40;;
79410;SDS011;69635;50.964;6.948;2023-04-26T04:07:04;12.25;;;3.25;;
79410;SDS011;69635;50.964;6.948;2023-04-26T04:09:30;8.82;;;3.20;;
79410;SDS011;69635;50.964;6.948;2023-04-26T04:11:56;11.05;;;3.80;;
79410;SDS011;69635;50.964;6.948;2023-04-26T04:14:21;6.22;;;2.63;;
79410;SDS011;69635;50.964;6.948;2023-04-26T04:16:47;9.88;;;3.83;;
79410;SDS011;69635;50.964;6.948;2023-04-26T04:19:12;8.00;;;3.60;;
79410;SDS011;69635;50.964;6.948;2023-04-26T04:21:37;10.15;;;3.05;;
79410;SDS011;69635;50.964;6.948;2023-04-26T04:24:04;8.63;;;3.13;;
79410;SDS011;69635;50.964;6.948;2023-04-26T04:26:30;7.03;;;3.30;;
79410;SDS011;69635;50.964;6.948;2023-04-26T04:28:55;7.25;;;2.97;;
79410;SDS011;69635;50.964;6.948;2023-04-26T04:31:21;6.18;;;2.88;;
79410;SDS011;69635;50.964;6.948;2023-04-26T04:33:47;6.88;;;3.03;;
79410;SDS011;69635;50.964;6.948;2023-04-26T04:36:13;8.88;;;3.15;;
79410;SDS011;69635;50.964;6.948;2023-04-26T04:38:41;10.02;;;3.65;;
79410;SDS011;69635;50.964;6.948;2023-04-26T04:41:06;7.50;;;3.50;;
79410;SDS011;69635;50.964;6.948;2023-04-26T04:43:32;10.27;;;3.55;;
79410;SDS011;69635;50.964;6.948;2023-04-26T04:45:58;7.68;;;3.33;;
79410;SDS011;69635;50.964;6.948;2023-04-26T04:48:24;17.00;;;5.07;;
79410;SDS011;69635;50.964;6.948;2023-04-26T04:50:49;12.73;;;4.43;;
79410;SDS011;69635;50.964;6.948;2023-04-26T04:53:14;11.02;;;4.05;;
79410;SDS011;69635;50.964;6.948;2023-04-26T04:55:42;9.75;;;3.83;;
79410;SDS011;69635;50.964;6.948;2023-04-26T04:58:08;7.85;;;3.75;;
79410;SDS011;69635;50.964;6.948;2023-04-26T05:00:33;9.10;;;4.18;;
79410;SDS011;69635;50.964;6.948;2023-04-26T05:02:59;11.40;;;4.00;;
79410;SDS011;69635;50.964;6.948;2023-04-26T05:05:24;11.07;;;3.33;;
79410;SDS011;69635;50.964;6.948;2023-04-26T05:07:50;10.73;;;4.00;;
79410;SDS011;69635;50.964;6.948;2023-04-26T05:10:15;14.10;;;4.28;;
79410;SDS011;69635;50.964;6.948;2023-04-26T05:12:40;15.32;;;3.80;;
79410;SDS011;69635;50.964;6.948;2023-04-26T05:15:06;10.15;;;4.38;;
79410;SDS011;69635;50.964;6.948;2023-04-26T05:17:32;12.40;;;3.95;;
79410;SDS011;69635;50.964;6.948;2023-04-26T05:19:58;8.70;;;3.50;;
79410;SDS011;69635;50.964;6.948;2023-04-26T05:22:25;10.43;;;3.72;;
79410;SDS011;69635;50.964;6.948;2023-04-26T05:24:51;8.68;;;3.47;;
79410;SDS011;69635;50.964;6.948;2023-04-26T05:27:16;8.32;;;4.20;;
79410;SDS011;69635;50.964;6.948;2023-04-26T05:29:42;11.65;;;4.25;;
79410;SDS011;69635;50.964;6.948;2023-04-26T05:32:07;7.97;;;3.90;;
79410;SDS011;69635;50.964;6.948;2023-04-26T05:34:32;8.70;;;3.30;;
79410;SDS011;69635;50.964;6.948;2023-04-26T05:36:58;10.95;;;3.90;;
79410;SDS011;69635;50.964;6.948;2023-04-26T05:39:23;10.63;;;4.13;;
79410;SDS011;69635;50.964;6.948;2023-04-26T05:41:49;10.75;;;3.78;;
79410;SDS011;69635;50.964;6.948;2023-04-26T05:44:14;10.30;;;3.97;;
79410;SDS011;69635;50.964;6.948;2023-04-26T05:46:40;11.23;;;4.22;;
79410;SDS011;69635;50.964;6.948;2023-04-26T05:49:06;12.10;;;3.80;;
79410;SDS011;69635;50.964;6.948;2023-04-26T05:51:31;11.38;;;4.30;;
79410;SDS011;69635;50.964;6.948;2023-04-26T05:53:56;10.73;;;4.00;;
79410;SDS011;69635;50.964;6.948;2023-04-26T05:56:22;7.55;;;3.90;;
79410;SDS011;69635;50.964;6.948;2023-04-26T05:58:48;10.90;;;4.05;;
79410;SDS011;69635;50.964;6.948;2023-04-26T06:01:14;13.88;;;3.70;;
79410;SDS011;69635;50.964;6.948;2023-04-26T06:03:40;10.48;;;4.35;;
79410;SDS011;69635;50.964;6.948;2023-04-26T06:06:06;8.32;;;3.95;;
79410;SDS011;69635;50.964;6.948;2023-04-26T06:08:32;9.45;;;4.20;;
79410;SDS011;69635;50.964;6.948;2023-04-26T06:10:57;9.57;;;4.30;;
79410;SDS011;69635;50.964;6.948;2023-04-26T06:13:23;14.23;;;4.57;;
79410;SDS011;69635;50.964;6.948;2023-04-26T06:15:48;12.18;;;4.80;;
79410;SDS011;69635;50.964;6.948;2023-04-26T06:18:14;10.05;;;4.18;;
79410;SDS011;69635;50.964;6.948;2023-04-26T06:20:39;12.52;;;4.65;;
79410;SDS011;69635;50.964;6.948;2023-04-26T06:23:05;13.35;;;4.32;;
79410;SDS011;69635;50.964;6.948;2023-04-26T06:25:30;12.93;;;4.57;;
79410;SDS011;69635;50.964;6.948;2023-04-26T06:27:56;9.55;;;4.28;;
79410;SDS011;69635;50.964;6.948;2023-04-26T06:30:22;12.52;;;4.18;;
79410;SDS011;69635;50.964;6.948;2023-04-26T06:32:48;13.88;;;4.97;;
79410;SDS011;69635;50.964;6.948;2023-04-26T06:35:14;9.82;;;4.78;;
79410;SDS011;69635;50.964;6.948;2023-04-26T06:37:39;9.63;;;4.43;;
79410;SDS011;69635;50.964;6.948;2023-04-26T06:40:05;13.15;;;4.97;;
79410;SDS011;69635;50.964;6.948;2023-04-26T06:42:31;11.85;;;4.57;;
79410;SDS011;69635;50.964;6.948;2023-04-26T06:44:56;16.23;;;4.70;;
79410;SDS011;69635;50.964;6.948;2023-04-26T06:47:22;11.25;;;4.30;;
79410;SDS011;69635;50.964;6.948;2023-04-26T06:49:47;9.13;;;4.05;;
79410;SDS011;69635;50.964;6.948;2023-04-26T06:52:12;12.05;;;4.45;;
79410;SDS011;69635;50.964;6.948;2023-04-26T06:54:38;11.10;;;4.60;;
79410;SDS011;69635;50.964;6.948;2023-04-26T06:57:03;12.70;;;4.97;;
79410;SDS011;69635;50.964;6.948;2023-04-26T06:59:29;12.35;;;3.92;;
79410;SDS011;69635;50.964;6.948;2023-04-26T07:01:54;12.95;;;3.28;;
79410;SDS011;69635;50.964;6.948;2023-04-26T07:04:19;10.50;;;3.67;;
79410;SDS011;69635;50.964;6.948;2023-04-26T07:06:45;8.18;;;3.88;;
79410;SDS011;69635;50.964;6.948;2023-04-26T07:09:11;8.10;;;3.13;;
79410;SDS011;69635;50.964;6.948;2023-04-26T07:11:37;10.90;;;3.28;;
79410;SDS011;69635;50.964;6.948;2023-04-26T07:14:03;9.93;;;3.15;;
79410;SDS011;69635;50.964;6.948;2023-04-26T07:16:29;9.63;;;3.30;;
79410;SDS011;69635;50.964;6.948;2023-04-26T07:18:54;13.30;;;3.60;;
79410;SDS011;69635;50.964;6.948;2023-04-26T07:21:22;7.15;;;3.10;;
79410;SDS011;69635;50.964;6.948;2023-04-26T07:23:52;10.68;;;3.40;;
79410;SDS011;69635;50.964;6.948;2023-04-26T07:28:43;11.30;;;3.60;;
79410;SDS011;69635;50.964;6.948;2023-04-26T07:31:08;11.15;;;3.90;;
79410;SDS011;69635;50.964;6.948;2023-04-26T07:33:34;6.82;;;3.17;;
79410;SDS011;69635;50.964;6.948;2023-04-26T07:35:59;8.90;;;3.42;;
79410;SDS011;69635;50.964;6.948;2023-04-26T07:38:25;11.30;;;3.95;;
79410;SDS011;69635;50.964;6.948;2023-04-26T07:40:51;9.48;;;3.38;;
79410;SDS011;69635;50.964;6.948;2023-04-26T07:43:17;8.02;;;3.72;;
79410;SDS011;69635;50.964;6.948;2023-04-26T07:45:43;6.38;;;2.83;;
79410;SDS011;69635;50.964;6.948;2023-04-26T07:48:09;6.18;;;3.10;;
79410;SDS011;69635;50.964;6.948;2023-04-26T07:50:34;9.77;;;3.28;;
79410;SDS011;69635;50.964;6.948;2023-04-26T07:53:00;7.93;;;3.08;;
79410;SDS011;69635;50.964;6.948;2023-04-26T07:55:25;9.38;;;3.38;;
79410;SDS011;69635;50.964;6.948;2023-04-26T07:57:51;6.63;;;2.70;;
79410;SDS011;69635;50.964;6.948;2023-04-26T08:00:16;6.82;;;2.58;;
79410;SDS011;69635;50.964;6.948;2023-04-26T08:02:43;6.97;;;2.53;;
79410;SDS011;69635;50.964;6.948;2023-04-26T08:05:11;8.00;;;2.85;;
79410;SDS011;69635;50.964;6.948;2023-04-26T08:07:37;8.95;;;2.85;;
79410;SDS011;69635;50.964;6.948;2023-04-26T08:10:02;5.18;;;2.53;;
79410;SDS011;69635;50.964;6.948;2023-04-26T08:12:28;9.23;;;2.80;;
79410;SDS011;69635;50.964;6.948;2023-04-26T08:14:53;9.05;;;2.95;;
79410;SDS011;69635;50.964;6.948;2023-04-26T08:17:18;7.53;;;2.35;;
79410;SDS011;69635;50.964;6.948;2023-04-26T08:19:44;6.63;;;2.70;;
79410;SDS011;69635;50.964;6.948;2023-04-26T08:22:09;7.57;;;2.40;;
79410;SDS011;69635;50.964;6.948;2023-04-26T08:24:35;5.78;;;2.78;;
79410;SDS011;69635;50.964;6.948;2023-04-26T08:27:00;6.38;;;2.47;;
79410;SDS011;69635;50.964;6.948;2023-04-26T08:29:26;6.03;;;2.55;;
79410;SDS011;69635;50.964;6.948;2023-04-26T08:31:51;8.68;;;2.70;;
79410;SDS011;69635;50.964;6.948;2023-04-26T08:34:17;6.78;;;3.22;;
79410;SDS011;69635;50.964;6.948;2023-04-26T08:36:42;9.10;;;2.75;;
79410;SDS011;69635;50.964;6.948;2023-04-26T08:39:09;18.33;;;4.00;;
79410;SDS011;69635;50.964;6.948;2023-04-26T08:41:37;7.90;;;2.67;;
79410;SDS011;69635;50.964;6.948;2023-04-26T08:44:13;8.38;;;2.60;;
79410;SDS011;69635;50.964;6.948;2023-04-26T08:51:54;10.15;;;3.60;;
79410;SDS011;69635;50.964;6.948;2023-04-26T08:54:21;8.02;;;2.50;;
79410;SDS011;69635;50.964;6.948;2023-04-26T08:56:49;7.65;;;2.92;;
79410;SDS011;69635;50.964;6.948;2023-04-26T08:59:15;6.18;;;2.72;;
79410;SDS011;69635;50.964;6.948;2023-04-26T09:01:42;9.77;;;2.90;;
79410;SDS011;69635;50.964;6.948;2023-04-26T09:04:08;7.03;;;2.30;;
79410;SDS011;69635;50.964;6.948;2023-04-26T09:06:33;5.85;;;2.53;;
79410;SDS011;69635;50.964;6.948;2023-04-26T09:09:01;6.32;;;2.67;;
79410;SDS011;69635;50.964;6.948;2023-04-26T09:11:51;5.63;;;3.42;;
79410;SDS011;69635;50.964;6.948;2023-04-26T09:14:17;5.40;;;2.30;;
79410;SDS011;69635;50.964;6.948;2023-04-26T09:16:42;4.85;;;1.90;;
79410;SDS011;69635;50.964;6.948;2023-04-26T09:19:07;5.60;;;1.90;;
79410;SDS011;69635;50.964;6.948;2023-04-26T09:21:33;3.63;;;2.13;;
79410;SDS011;69635;50.964;6.948;2023-04-26T09:24:12;7.70;;;2.20;;
79410;SDS011;69635;50.964;6.948;2023-04-26T09:26:39;6.38;;;2.67;;
79410;SDS011;69635;50.964;6.948;2023-04-26T09:29:11;5.63;;;2.38;;
79410;SDS011;69635;50.964;6.948;2023-04-26T09:31:45;6.25;;;2.67;;
79410;SDS011;69635;50.964;6.948;2023-04-26T09:34:12;4.60;;;2.33;;
79410;SDS011;69635;50.964;6.948;2023-04-26T09:36:47;6.13;;;2.40;;
79410;SDS011;69635;50.964;6.948;2023-04-26T09:39:13;2.90;;;2.28;;
79410;SDS011;69635;50.964;6.948;2023-04-26T09:41:44;9.15;;;2.45;;
79410;SDS011;69635;50.964;6.948;2023-04-26T09:44:22;6.70;;;3.00;;
79410;SDS011;69635;50.964;6.948;2023-04-26T09:49:31;6.65;;;2.80;;
79410;SDS011;69635;50.964;6.948;2023-04-26T09:52:00;7.63;;;3.40;;
79410;SDS011;69635;50.964;6.948;2023-04-26T09:54:36;4.25;;;2.95;;
79410;SDS011;69635;50.964;6.948;2023-04-26T09:57:22;8.75;;;3.58;;
79410;SDS011;69635;50.964;6.948;2023-04-26T09:59:51;6.90;;;3.15;;
79410;SDS011;69635;50.964;6.948;2023-04-26T10:02:22;8.75;;;3.45;;
79410;SDS011;69635;50.964;6.948;2023-04-26T10:04:50;6.88;;;3.40;;
79410;SDS011;69635;50.964;6.948;2023-04-26T10:07:18;7.32;;;3.05;;
79410;SDS011;69635;50.964;6.948;2023-04-26T10:09:45;4.47;;;3.10;;
79410;SDS011;69635;50.964;6.948;2023-04-26T10:12:11;5.47;;;2.55;;
79410;SDS011;69635;50.964;6.948;2023-04-26T10:14:38;4.28;;;2.53;;
79410;SDS011;69635;50.964;6.948;2023-04-26T10:17:05;5.85;;;2.58;;
79410;SDS011;69635;50.964;6.948;2023-04-26T10:19:32;3.85;;;2.38;;
79410;SDS011;69635;50.964;6.948;2023-04-26T10:21:59;9.40;;;2.58;;
79410;SDS011;69635;50.964;6.948;2023-04-26T10:24:29;4.28;;;2.95;;
79410;SDS011;69635;50.964;6.948;2023-04-26T10:26:54;9.60;;;3.10;;
79410;SDS011;69635;50.964;6.948;2023-04-26T10:29:23;6.72;;;3.03;;
79410;SDS011;69635;50.964;6.948;2023-04-26T10:34:26;5.95;;;2.88;;
79410;SDS011;69635;50.964;6.948;2023-04-26T10:37:08;5.80;;;3.10;;
79410;SDS011;69635;50.964;6.948;2023-04-26T10:39:42;4.47;;;2.50;;
79410;SDS011;69635;50.964;6.948;2023-04-26T10:42:27;4.05;;;2.67;;
79410;SDS011;69635;50.964;6.948;2023-04-26T10:44:56;6.10;;;2.67;;
79410;SDS011;69635;50.964;6.948;2023-04-26T10:52:30;7.85;;;3.40;;
79410;SDS011;69635;50.964;6.948;2023-04-26T10:54:56;7.47;;;2.95;;
79410;SDS011;69635;50.964;6.948;2023-04-26T11:05:37;8.18;;;3.60;;
79410;SDS011;69635;50.964;6.948;2023-04-26T11:10:48;6.75;;;3.47;;
79410;SDS011;69635;50.964;6.948;2023-04-26T11:13:16;5.85;;;2.80;;
79410;SDS011;69635;50.964;6.948;2023-04-26T11:15:41;5.22;;;2.20;;
79410;SDS011;69635;50.964;6.948;2023-04-26T11:18:07;6.55;;;2.85;;
79410;SDS011;69635;50.964;6.948;2023-04-26T11:20:32;6.72;;;2.42;;
79410;SDS011;69635;50.964;6.948;2023-04-26T11:22:58;4.38;;;2.65;;
79410;SDS011;69635;50.964;6.948;2023-04-26T11:25:28;5.72;;;3.05;;
79410;SDS011;69635;50.964;6.948;2023-04-26T11:28:00;8.52;;;3.08;;
79410;SDS011;69635;50.964;6.948;2023-04-26T11:30:30;5.70;;;2.90;;
79410;SDS011;69635;50.964;6.948;2023-04-26T11:32:59;6.53;;;2.60;;
79410;SDS011;69635;50.964;6.948;2023-04-26T11:35:26;6.45;;;2.35;;
79410;SDS011;69635;50.964;6.948;2023-04-26T11:37:53;6.93;;;2.40;;
79410;SDS011;69635;50.964;6.948;2023-04-26T11:40:22;6.47;;;3.08;;
79410;SDS011;69635;50.964;6.948;2023-04-26T11:42:47;5.70;;;2.75;;
79410;SDS011;69635;50.964;6.948;2023-04-26T11:45:16;4.35;;;2.50;;
79410;SDS011;69635;50.964;6.948;2023-04-26T11:47:41;5.47;;;2.28;;
79410;SDS011;69635;50.964;6.948;2023-04-26T11:50:08;8.77;;;3.95;;
79410;SDS011;69635;50.964;6.948;2023-04-26T11:52:34;6.70;;;3.30;;
79410;SDS011;69635;50.964;6.948;2023-04-26T11:55:00;5.10;;;3.17;;
79410;SDS011;69635;50.964;6.948;2023-04-26T11:57:30;6.05;;;3.00;;
79410;SDS011;69635;50.964;6.948;2023-04-26T12:00:07;5.30;;;2.65;;
79410;SDS011;69635;50.964;6.948;2023-04-26T12:02:36;4.10;;;2.75;;
79410;SDS011;69635;50.964;6.948;2023-04-26T12:05:02;6.13;;;2.85;;
79410;SDS011;69635;50.964;6.948;2023-04-26T12:07:31;4.78;;;2.78;;
79410;SDS011;69635;50.964;6.948;2023-04-26T12:10:13;7.55;;;3.20;;
79410;SDS011;69635;50.964;6.948;2023-04-26T12:12:43;8.45;;;2.83;;
79410;SDS011;69635;50.964;6.948;2023-04-26T12:15:11;6.80;;;3.00;;
79410;SDS011;69635;50.964;6.948;2023-04-26T12:17:37;6.53;;;2.92;;
79410;SDS011;69635;50.964;6.948;2023-04-26T12:20:11;6.70;;;3.08;;
79410;SDS011;69635;50.964;6.948;2023-04-26T12:22:37;6.38;;;3.40;;
79410;SDS011;69635;50.964;6.948;2023-04-26T12:25:03;6.93;;;2.97;;
79410;SDS011;69635;50.964;6.948;2023-04-26T12:27:33;7.60;;;3.33;;
79410;SDS011;69635;50.964;6.948;2023-04-26T12:29:59;6.07;;;2.85;;
79410;SDS011;69635;50.964;6.948;2023-04-26T12:32:24;6.82;;;3.10;;
79410;SDS011;69635;50.964;6.948;2023-04-26T12:34:50;8.70;;;3.53;;
79410;SDS011;69635;50.964;6.948;2023-04-26T12:37:15;7.82;;;3.22;;
79410;SDS011;69635;50.964;6.948;2023-04-26T12:39:40;7.70;;;3.08;;
79410;SDS011;69635;50.964;6.948;2023-04-26T12:42:07;6.30;;;3.25;;
79410;SDS011;69635;50.964;6.948;2023-04-26T12:44:33;6.05;;;3.53;;
79410;SDS011;69635;50.964;6.948;2023-04-26T12:46:58;4.95;;;2.60;;
79410;SDS011;69635;50.964;6.948;2023-04-26T12:49:23;5.63;;;3.00;;
79410;SDS011;69635;50.964;6.948;2023-04-26T12:51:49;10.35;;;3.20;;
79410;SDS011;69635;50.964;6.948;2023-04-26T12:54:14;6.30;;;3.03;;
79410;SDS011;69635;50.964;6.948;2023-04-26T12:56:40;4.80;;;2.63;;
79410;SDS011;69635;50.964;6.948;2023-04-26T12:59:08;5.75;;;3.25;;
79410;SDS011;69635;50.964;6.948;2023-04-26T13:01:33;5.00;;;3.17;;
79410;SDS011;69635;50.964;6.948;2023-04-26T13:03:59;5.15;;;2.67;;
79410;SDS011;69635;50.964;6.948;2023-04-26T13:06:26;6.60;;;3.30;;
79410;SDS011;69635;50.964;6.948;2023-04-26T13:08:52;8.57;;;3.60;;
79410;SDS011;69635;50.964;6.948;2023-04-26T13:11:20;4.78;;;3.28;;
79410;SDS011;69635;50.964;6.948;2023-04-26T13:13:46;7.38;;;3.70;;
79410;SDS011;69635;50.964;6.948;2023-04-26T13:16:13;7.18;;;3.00;;
79410;SDS011;69635;50.964;6.948;2023-04-26T13:18:39;5.85;;;3.10;;
79410;SDS011;69635;50.964;6.948;2023-04-26T13:21:05;6.10;;;3.22;;
79410;SDS011;69635;50.964;6.948;2023-04-26T13:23:31;5.43;;;3.28;;
79410;SDS011;69635;50.964;6.948;2023-04-26T13:25:56;6.80;;;3.63;;
79410;SDS011;69635;50.964;6.948;2023-04-26T13:28:21;7.50;;;3.53;;
79410;SDS011;69635;50.964;6.948;2023-04-26T13:30:47;5.22;;;2.88;;
79410;SDS011;69635;50.964;6.948;2023-04-26T13:33:12;4.30;;;2.90;;
79410;SDS011;69635;50.964;6.948;2023-04-26T13:35:37;7.38;;;3.20;;
79410;SDS011;69635;50.964;6.948;2023-04-26T13:38:03;5.95;;;2.85;;
79410;SDS011;69635;50.964;6.948;2023-04-26T13:40:28;6.30;;;2.95;;
79410;SDS011;69635;50.964;6.948;2023-04-26T13:42:54;5.78;;;2.92;;
79410;SDS011;69635;50.964;6.948;2023-04-26T13:45:19;6.10;;;2.38;;
79410;SDS011;69635;50.964;6.948;2023-04-26T13:47:45;6.85;;;2.53;;
79410;SDS011;69635;50.964;6.948;2023-04-26T13:50:10;4.93;;;2.80;;
79410;SDS011;69635;50.964;6.948;2023-04-26T13:52:35;5.07;;;2.95;;
79410;SDS011;69635;50.964;6.948;2023-04-26T13:55:01;4.80;;;2.58;;
79410;SDS011;69635;50.964;6.948;2023-04-26T13:57:27;6.25;;;3.25;;
79410;SDS011;69635;50.964;6.948;2023-04-26T13:59:53;8.65;;;2.40;;
79410;SDS011;69635;50.964;6.948;2023-04-26T14:02:18;9.05;;;2.88;;
79410;SDS011;69635;50.964;6.948;2023-04-26T14:04:43;5.97;;;2.72;;
79410;SDS011;69635;50.964;6.948;2023-04-26T14:07:09;5.63;;;2.78;;
79410;SDS011;69635;50.964;6.948;2023-04-26T14:09:35;3.70;;;2.50;;
79410;SDS011;69635;50.964;6.948;2023-04-26T14:12:00;5.65;;;3.40;;
79410;SDS011;69635;50.964;6.948;2023-04-26T14:14:25;7.22;;;4.05;;
79410;SDS011;69635;50.964;6.948;2023-04-26T14:16:51;5.22;;;2.40;;
79410;SDS011;69635;50.964;6.948;2023-04-26T14:19:16;7.38;;;2.72;;
79410;SDS011;69635;50.964;6.948;2023-04-26T14:21:42;6.45;;;2.13;;
79410;SDS011;69635;50.964;6.948;2023-04-26T14:24:07;5.28;;;2.30;;
79410;SDS011;69635;50.964;6.948;2023-04-26T14:26:33;5.72;;;2.97;;
79410;SDS011;69635;50.964;6.948;2023-04-26T14:28:59;7.05;;;2.25;;
79410;SDS011;69635;50.964;6.948;2023-04-26T14:31:25;8.30;;;2.60;;
79410;SDS011;69635;50.964;6.948;2023-04-26T14:33:52;8.82;;;2.38;;
79410;SDS011;69635;50.964;6.948;2023-04-26T14:36:18;6.13;;;2.22;;
79410;SDS011;69635;50.964;6.948;2023-04-26T14:38:44;5.88;;;1.85;;
79410;SDS011;69635;50.964;6.948;2023-04-26T14:41:14;5.72;;;2.30;;
79410;SDS011;69635;50.964;6.948;2023-04-26T14:43:43;4.45;;;2.00;;
79410;SDS011;69635;50.964;6.948;2023-04-26T14:46:10;5.95;;;2.10;;
79410;SDS011;69635;50.964;6.948;2023-04-26T14:48:36;4.22;;;2.22;;
79410;SDS011;69635;50.964;6.948;2023-04-26T14:51:02;5.50;;;1.88;;
79410;SDS011;69635;50.964;6.948;2023-04-26T14:53:28;7.95;;;2.10;;
79410;SDS011;69635;50.964;6.948;2023-04-26T14:55:54;7.20;;;2.60;;
79410;SDS011;69635;50.964;6.948;2023-04-26T14:58:20;4.72;;;2.60;;
79410;SDS011;69635;50.964;6.948;2023-04-26T15:00:45;5.28;;;2.28;;
79410;SDS011;69635;50.964;6.948;2023-04-26T15:03:11;4.35;;;2.58;;
79410;SDS011;69635;50.964;6.948;2023-04-26T15:05:36;7.30;;;2.15;;
79410;SDS011;69635;50.964;6.948;2023-04-26T15:08:02;8.32;;;2.55;;
79410;SDS011;69635;50.964;6.948;2023-04-26T15:10:28;4.28;;;2.10;;